マイアミ の空港の天気 - METARとTAF

マイアミ国際空港 ( KMIA / MIA ) - アメリカ合衆国 フロリダ州マイアミ
飛行場実況気象(Metar)
観測時間02/20 09:53 EST (02/20 14:53 UTC)
風向・風速東 3m/s
視程10km以上
天気現象
全天の8割程度の雲 雲底高度 1160m
気温23.9℃
湿度62%
気圧1020.4hPa
METARKMIA 201453Z 08005KT 10SM BKN038 24/16 A3014 RMK AO2 SLP204 T02390161 51018
過去の天気等 Google飛行場航空写真 Wunderground天気予報

過去48時間のMETAR

飛行場予報(TAF)
発表時間: 2/20 09:50 EST (2/20 14:50 UTC)
予報対象時間: 20日10時 EST ~ 21日7時 EST
風向・風速東北東 3m/s
視程10km以上
少しの雲 雲底高度 610m
全天の4割程度の雲 雲底高度 7,620m
20日11時 EST から
風向・風速東 5m/s
視程10km以上
全天の4割程度の雲 雲底高度 760m
全天の4割程度の雲 雲底高度 1,520m
20日19時 EST から
風向・風速東北東 4m/s
視程10km以上
少しの雲 雲底高度 910m
全天の4割程度の雲 雲底高度 7,620m
KMIA 201450Z 2015/2112 07006KT P6SM FEW020 SCT250
FM201600 08010KT P6SM SCT025 SCT050
FM210000 07007KT P6SM FEW030 SCT250